sensor_id;sensor_type;location;lat;lon;timestamp;temperature;humidity
19242;DHT22;9755;47.790;9.620;2022-12-10T00:00:10;0.60;99.90
19242;DHT22;9755;47.790;9.620;2022-12-10T00:02:38;0.60;99.90
19242;DHT22;9755;47.790;9.620;2022-12-10T00:05:06;0.60;99.90
19242;DHT22;9755;47.790;9.620;2022-12-10T00:07:33;0.60;99.90
19242;DHT22;9755;47.790;9.620;2022-12-10T00:10:00;0.60;99.90
19242;DHT22;9755;47.790;9.620;2022-12-10T00:12:27;0.60;99.90
19242;DHT22;9755;47.790;9.620;2022-12-10T00:14:54;0.60;99.90
19242;DHT22;9755;47.790;9.620;2022-12-10T00:17:21;0.60;99.90
19242;DHT22;9755;47.790;9.620;2022-12-10T00:19:50;0.60;99.90
19242;DHT22;9755;47.790;9.620;2022-12-10T00:22:17;0.60;99.90
19242;DHT22;9755;47.790;9.620;2022-12-10T00:24:44;0.60;99.90
19242;DHT22;9755;47.790;9.620;2022-12-10T00:27:11;0.60;99.90
19242;DHT22;9755;47.790;9.620;2022-12-10T00:29:38;0.60;99.90
19242;DHT22;9755;47.790;9.620;2022-12-10T00:32:05;0.60;99.90
19242;DHT22;9755;47.790;9.620;2022-12-10T00:34:32;0.60;99.90
19242;DHT22;9755;47.790;9.620;2022-12-10T00:37:00;0.60;99.90
19242;DHT22;9755;47.790;9.620;2022-12-10T00:39:27;0.60;99.90
19242;DHT22;9755;47.790;9.620;2022-12-10T00:41:54;0.60;99.90
19242;DHT22;9755;47.790;9.620;2022-12-10T00:44:21;0.60;99.90
19242;DHT22;9755;47.790;9.620;2022-12-10T00:46:48;0.60;99.90
19242;DHT22;9755;47.790;9.620;2022-12-10T00:49:15;0.60;99.90
19242;DHT22;9755;47.790;9.620;2022-12-10T00:51:43;0.60;99.90
19242;DHT22;9755;47.790;9.620;2022-12-10T00:54:11;0.60;99.90
19242;DHT22;9755;47.790;9.620;2022-12-10T00:56:38;0.60;99.90
19242;DHT22;9755;47.790;9.620;2022-12-10T00:59:05;0.60;99.90
19242;DHT22;9755;47.790;9.620;2022-12-10T01:01:34;0.60;99.90
19242;DHT22;9755;47.790;9.620;2022-12-10T01:04:04;0.60;99.90
19242;DHT22;9755;47.790;9.620;2022-12-10T01:06:33;0.60;99.90
19242;DHT22;9755;47.790;9.620;2022-12-10T01:09:02;0.50;99.90
19242;DHT22;9755;47.790;9.620;2022-12-10T01:11:33;0.50;99.90
19242;DHT22;9755;47.790;9.620;2022-12-10T01:14:00;0.50;99.90
19242;DHT22;9755;47.790;9.620;2022-12-10T01:16:27;0.50;99.90
19242;DHT22;9755;47.790;9.620;2022-12-10T01:18:56;0.50;99.90
19242;DHT22;9755;47.790;9.620;2022-12-10T01:21:24;0.50;99.90
19242;DHT22;9755;47.790;9.620;2022-12-10T01:23:52;0.50;99.90
19242;DHT22;9755;47.790;9.620;2022-12-10T01:26:21;0.50;99.90
19242;DHT22;9755;47.790;9.620;2022-12-10T01:28:50;0.50;99.90
19242;DHT22;9755;47.790;9.620;2022-12-10T01:31:19;0.50;99.90
19242;DHT22;9755;47.790;9.620;2022-12-10T01:33:47;0.50;99.90
19242;DHT22;9755;47.790;9.620;2022-12-10T01:36:16;0.50;99.90
19242;DHT22;9755;47.790;9.620;2022-12-10T01:38:44;0.60;99.90
19242;DHT22;9755;47.790;9.620;2022-12-10T01:41:15;0.50;99.90
19242;DHT22;9755;47.790;9.620;2022-12-10T01:43:56;0.50;99.90
19242;DHT22;9755;47.790;9.620;2022-12-10T01:46:26;0.50;99.90
19242;DHT22;9755;47.790;9.620;2022-12-10T01:48:54;0.50;99.90
19242;DHT22;9755;47.790;9.620;2022-12-10T01:51:22;0.50;99.90
19242;DHT22;9755;47.790;9.620;2022-12-10T01:53:49;0.60;99.90
19242;DHT22;9755;47.790;9.620;2022-12-10T01:56:17;0.60;99.90
19242;DHT22;9755;47.790;9.620;2022-12-10T01:58:46;0.60;99.90
19242;DHT22;9755;47.790;9.620;2022-12-10T02:01:20;0.60;99.90
19242;DHT22;9755;47.790;9.620;2022-12-10T02:04:01;0.60;99.90
19242;DHT22;9755;47.790;9.620;2022-12-10T02:06:38;0.60;99.90
19242;DHT22;9755;47.790;9.620;2022-12-10T02:09:15;0.60;99.90
19242;DHT22;9755;47.790;9.620;2022-12-10T02:11:50;0.60;99.90
19242;DHT22;9755;47.790;9.620;2022-12-10T02:14:23;0.60;99.90
19242;DHT22;9755;47.790;9.620;2022-12-10T02:16:57;0.50;99.90
19242;DHT22;9755;47.790;9.620;2022-12-10T02:19:36;0.60;99.90
19242;DHT22;9755;47.790;9.620;2022-12-10T02:22:09;0.50;99.90
19242;DHT22;9755;47.790;9.620;2022-12-10T02:24:38;0.60;99.90
19242;DHT22;9755;47.790;9.620;2022-12-10T02:27:11;0.60;99.90
19242;DHT22;9755;47.790;9.620;2022-12-10T02:29:43;0.60;99.90
19242;DHT22;9755;47.790;9.620;2022-12-10T02:32:13;0.60;99.90
19242;DHT22;9755;47.790;9.620;2022-12-10T02:34:43;0.60;99.90
19242;DHT22;9755;47.790;9.620;2022-12-10T02:37:17;0.60;99.90
19242;DHT22;9755;47.790;9.620;2022-12-10T02:39:50;0.60;99.90
19242;DHT22;9755;47.790;9.620;2022-12-10T02:42:18;0.60;99.90
19242;DHT22;9755;47.790;9.620;2022-12-10T02:44:49;0.60;99.90
19242;DHT22;9755;47.790;9.620;2022-12-10T02:47:18;0.60;99.90
19242;DHT22;9755;47.790;9.620;2022-12-10T02:49:47;0.60;99.90
19242;DHT22;9755;47.790;9.620;2022-12-10T02:52:18;0.60;99.90
19242;DHT22;9755;47.790;9.620;2022-12-10T02:54:47;0.60;99.90
19242;DHT22;9755;47.790;9.620;2022-12-10T02:57:27;0.60;99.90
19242;DHT22;9755;47.790;9.620;2022-12-10T03:00:07;0.70;99.90
19242;DHT22;9755;47.790;9.620;2022-12-10T03:02:41;0.70;99.90
19242;DHT22;9755;47.790;9.620;2022-12-10T03:05:15;0.60;99.90
19242;DHT22;9755;47.790;9.620;2022-12-10T03:07:47;0.70;99.90
19242;DHT22;9755;47.790;9.620;2022-12-10T03:10:27;0.60;99.90
19242;DHT22;9755;47.790;9.620;2022-12-10T03:12:59;0.60;99.90
19242;DHT22;9755;47.790;9.620;2022-12-10T03:15:31;0.60;99.90
19242;DHT22;9755;47.790;9.620;2022-12-10T03:18:02;0.60;99.90
19242;DHT22;9755;47.790;9.620;2022-12-10T03:20:31;0.60;99.90
19242;DHT22;9755;47.790;9.620;2022-12-10T03:22:59;0.70;99.90
19242;DHT22;9755;47.790;9.620;2022-12-10T03:25:29;0.70;99.90
19242;DHT22;9755;47.790;9.620;2022-12-10T03:27:59;0.70;99.90
19242;DHT22;9755;47.790;9.620;2022-12-10T03:30:29;0.70;99.90
19242;DHT22;9755;47.790;9.620;2022-12-10T03:32:59;0.70;99.90
19242;DHT22;9755;47.790;9.620;2022-12-10T03:35:26;0.70;99.90
19242;DHT22;9755;47.790;9.620;2022-12-10T03:37:54;0.70;99.90
19242;DHT22;9755;47.790;9.620;2022-12-10T03:40:23;0.70;99.90
19242;DHT22;9755;47.790;9.620;2022-12-10T03:42:51;0.70;99.90
19242;DHT22;9755;47.790;9.620;2022-12-10T03:45:18;0.70;99.90
19242;DHT22;9755;47.790;9.620;2022-12-10T03:47:47;0.70;99.90
19242;DHT22;9755;47.790;9.620;2022-12-10T03:50:15;0.70;99.90
19242;DHT22;9755;47.790;9.620;2022-12-10T03:52:42;0.70;99.90
19242;DHT22;9755;47.790;9.620;2022-12-10T03:55:09;0.70;99.90
19242;DHT22;9755;47.790;9.620;2022-12-10T03:57:36;0.70;99.90
19242;DHT22;9755;47.790;9.620;2022-12-10T04:00:06;0.70;99.90
19242;DHT22;9755;47.790;9.620;2022-12-10T04:02:33;0.70;99.90
19242;DHT22;9755;47.790;9.620;2022-12-10T04:05:02;0.70;99.90
19242;DHT22;9755;47.790;9.620;2022-12-10T04:07:30;0.70;99.90
19242;DHT22;9755;47.790;9.620;2022-12-10T04:09:57;0.70;99.90
19242;DHT22;9755;47.790;9.620;2022-12-10T04:12:24;0.70;99.90
19242;DHT22;9755;47.790;9.620;2022-12-10T04:14:51;0.70;99.90
19242;DHT22;9755;47.790;9.620;2022-12-10T04:17:36;0.70;99.90
19242;DHT22;9755;47.790;9.620;2022-12-10T04:20:05;0.70;99.90
19242;DHT22;9755;47.790;9.620;2022-12-10T04:22:52;0.70;99.90
19242;DHT22;9755;47.790;9.620;2022-12-10T04:25:42;0.70;99.90
19242;DHT22;9755;47.790;9.620;2022-12-10T04:28:26;0.70;99.90
19242;DHT22;9755;47.790;9.620;2022-12-10T04:30:53;0.70;99.90
19242;DHT22;9755;47.790;9.620;2022-12-10T04:33:21;0.70;99.90
19242;DHT22;9755;47.790;9.620;2022-12-10T04:35:49;0.70;99.90
19242;DHT22;9755;47.790;9.620;2022-12-10T04:38:16;0.70;99.90
19242;DHT22;9755;47.790;9.620;2022-12-10T04:40:46;0.70;99.90
19242;DHT22;9755;47.790;9.620;2022-12-10T04:43:13;0.70;99.90
19242;DHT22;9755;47.790;9.620;2022-12-10T04:45:40;0.70;99.90
19242;DHT22;9755;47.790;9.620;2022-12-10T04:48:07;0.70;99.90
19242;DHT22;9755;47.790;9.620;2022-12-10T04:50:37;0.70;99.90
19242;DHT22;9755;47.790;9.620;2022-12-10T04:53:06;0.70;99.90
19242;DHT22;9755;47.790;9.620;2022-12-10T04:55:33;0.70;99.90
19242;DHT22;9755;47.790;9.620;2022-12-10T04:58:00;0.70;99.90
19242;DHT22;9755;47.790;9.620;2022-12-10T05:00:27;0.70;99.90
19242;DHT22;9755;47.790;9.620;2022-12-10T05:02:54;0.70;99.90
19242;DHT22;9755;47.790;9.620;2022-12-10T05:05:21;0.70;99.90
19242;DHT22;9755;47.790;9.620;2022-12-10T05:07:48;0.70;99.90
19242;DHT22;9755;47.790;9.620;2022-12-10T05:10:17;0.70;99.90
19242;DHT22;9755;47.790;9.620;2022-12-10T05:12:44;0.70;99.90
19242;DHT22;9755;47.790;9.620;2022-12-10T05:15:11;0.70;99.90
19242;DHT22;9755;47.790;9.620;2022-12-10T05:17:38;0.70;99.90
19242;DHT22;9755;47.790;9.620;2022-12-10T05:20:06;0.70;99.90
19242;DHT22;9755;47.790;9.620;2022-12-10T05:22:34;0.70;99.90
19242;DHT22;9755;47.790;9.620;2022-12-10T05:25:19;0.70;99.90
19242;DHT22;9755;47.790;9.620;2022-12-10T05:27:46;0.70;99.90
19242;DHT22;9755;47.790;9.620;2022-12-10T05:30:13;0.70;99.90
19242;DHT22;9755;47.790;9.620;2022-12-10T05:32:40;0.70;99.90
19242;DHT22;9755;47.790;9.620;2022-12-10T05:35:08;0.70;99.90
19242;DHT22;9755;47.790;9.620;2022-12-10T05:37:35;0.70;99.90
19242;DHT22;9755;47.790;9.620;2022-12-10T05:40:03;0.70;99.90
19242;DHT22;9755;47.790;9.620;2022-12-10T05:42:31;0.70;99.90
19242;DHT22;9755;47.790;9.620;2022-12-10T05:44:58;0.70;99.90
19242;DHT22;9755;47.790;9.620;2022-12-10T05:47:25;0.80;99.90
19242;DHT22;9755;47.790;9.620;2022-12-10T05:49:52;0.70;99.90
19242;DHT22;9755;47.790;9.620;2022-12-10T05:52:19;0.70;99.90
19242;DHT22;9755;47.790;9.620;2022-12-10T05:54:46;0.70;99.90
19242;DHT22;9755;47.790;9.620;2022-12-10T05:57:13;0.70;99.90
19242;DHT22;9755;47.790;9.620;2022-12-10T05:59:42;0.80;99.90
19242;DHT22;9755;47.790;9.620;2022-12-10T06:02:09;0.70;99.90
19242;DHT22;9755;47.790;9.620;2022-12-10T06:04:36;0.80;99.90
19242;DHT22;9755;47.790;9.620;2022-12-10T06:07:03;0.80;99.90
19242;DHT22;9755;47.790;9.620;2022-12-10T06:09:30;0.80;99.90
19242;DHT22;9755;47.790;9.620;2022-12-10T06:11:57;0.80;99.90
19242;DHT22;9755;47.790;9.620;2022-12-10T06:14:24;0.80;99.90
19242;DHT22;9755;47.790;9.620;2022-12-10T06:16:52;0.80;99.90
19242;DHT22;9755;47.790;9.620;2022-12-10T06:19:19;0.80;99.90
19242;DHT22;9755;47.790;9.620;2022-12-10T06:21:47;0.70;99.90
19242;DHT22;9755;47.790;9.620;2022-12-10T06:24:14;0.70;99.90
19242;DHT22;9755;47.790;9.620;2022-12-10T06:26:41;0.70;99.90
19242;DHT22;9755;47.790;9.620;2022-12-10T06:29:09;0.70;99.90
19242;DHT22;9755;47.790;9.620;2022-12-10T06:31:36;0.70;99.90
19242;DHT22;9755;47.790;9.620;2022-12-10T06:34:04;0.70;99.90
19242;DHT22;9755;47.790;9.620;2022-12-10T06:36:31;0.70;99.90
19242;DHT22;9755;47.790;9.620;2022-12-10T06:38:58;0.70;99.90
19242;DHT22;9755;47.790;9.620;2022-12-10T06:41:25;0.70;99.90
19242;DHT22;9755;47.790;9.620;2022-12-10T06:43:52;0.70;99.90
19242;DHT22;9755;47.790;9.620;2022-12-10T06:46:24;0.70;99.90
19242;DHT22;9755;47.790;9.620;2022-12-10T06:48:52;0.70;99.90
19242;DHT22;9755;47.790;9.620;2022-12-10T06:51:20;0.70;99.90
19242;DHT22;9755;47.790;9.620;2022-12-10T06:53:47;0.70;99.90
19242;DHT22;9755;47.790;9.620;2022-12-10T06:56:16;0.70;99.90
19242;DHT22;9755;47.790;9.620;2022-12-10T06:58:43;0.70;99.90
19242;DHT22;9755;47.790;9.620;2022-12-10T07:01:12;0.70;99.90
19242;DHT22;9755;47.790;9.620;2022-12-10T07:03:40;0.70;99.90
19242;DHT22;9755;47.790;9.620;2022-12-10T07:06:08;0.70;99.90
19242;DHT22;9755;47.790;9.620;2022-12-10T07:08:38;0.70;99.90
19242;DHT22;9755;47.790;9.620;2022-12-10T07:11:06;0.70;99.90
19242;DHT22;9755;47.790;9.620;2022-12-10T07:13:33;0.60;99.90
19242;DHT22;9755;47.790;9.620;2022-12-10T07:16:00;0.70;99.90
19242;DHT22;9755;47.790;9.620;2022-12-10T07:18:27;0.60;99.90
19242;DHT22;9755;47.790;9.620;2022-12-10T07:20:54;0.60;99.90
19242;DHT22;9755;47.790;9.620;2022-12-10T07:23:21;0.60;99.90
19242;DHT22;9755;47.790;9.620;2022-12-10T07:25:50;0.60;99.90
19242;DHT22;9755;47.790;9.620;2022-12-10T07:28:17;0.60;99.90
19242;DHT22;9755;47.790;9.620;2022-12-10T07:30:44;0.60;99.90
19242;DHT22;9755;47.790;9.620;2022-12-10T07:33:11;0.60;99.90
19242;DHT22;9755;47.790;9.620;2022-12-10T07:35:38;0.60;99.90
19242;DHT22;9755;47.790;9.620;2022-12-10T07:38:05;0.60;99.90
19242;DHT22;9755;47.790;9.620;2022-12-10T07:40:32;0.60;99.90
19242;DHT22;9755;47.790;9.620;2022-12-10T07:43:01;0.50;99.90
19242;DHT22;9755;47.790;9.620;2022-12-10T07:45:31;0.60;99.90
19242;DHT22;9755;47.790;9.620;2022-12-10T07:47:58;0.60;99.90
19242;DHT22;9755;47.790;9.620;2022-12-10T07:50:25;0.50;99.90
19242;DHT22;9755;47.790;9.620;2022-12-10T07:52:53;0.50;99.90
19242;DHT22;9755;47.790;9.620;2022-12-10T07:55:20;0.60;99.90
19242;DHT22;9755;47.790;9.620;2022-12-10T07:57:47;0.60;99.90
19242;DHT22;9755;47.790;9.620;2022-12-10T08:00:16;0.60;99.90
19242;DHT22;9755;47.790;9.620;2022-12-10T08:03:14;0.60;99.90
19242;DHT22;9755;47.790;9.620;2022-12-10T08:06:11;0.60;99.90
19242;DHT22;9755;47.790;9.620;2022-12-10T08:08:41;0.60;99.90
19242;DHT22;9755;47.790;9.620;2022-12-10T08:11:15;0.60;99.90
19242;DHT22;9755;47.790;9.620;2022-12-10T08:13:46;0.60;99.90
19242;DHT22;9755;47.790;9.620;2022-12-10T08:16:17;0.60;99.90
19242;DHT22;9755;47.790;9.620;2022-12-10T08:18:45;0.70;99.90
19242;DHT22;9755;47.790;9.620;2022-12-10T08:21:13;0.60;99.90
19242;DHT22;9755;47.790;9.620;2022-12-10T08:23:41;0.60;99.90
19242;DHT22;9755;47.790;9.620;2022-12-10T08:26:10;0.60;99.90
19242;DHT22;9755;47.790;9.620;2022-12-10T08:28:38;0.60;99.90
19242;DHT22;9755;47.790;9.620;2022-12-10T08:31:06;0.60;99.90
19242;DHT22;9755;47.790;9.620;2022-12-10T08:33:36;0.60;99.90
19242;DHT22;9755;47.790;9.620;2022-12-10T08:36:04;0.60;99.90
19242;DHT22;9755;47.790;9.620;2022-12-10T08:38:32;0.60;99.90
19242;DHT22;9755;47.790;9.620;2022-12-10T08:41:05;0.60;99.90
19242;DHT22;9755;47.790;9.620;2022-12-10T08:43:35;0.60;99.90
19242;DHT22;9755;47.790;9.620;2022-12-10T08:46:03;0.60;99.90
19242;DHT22;9755;47.790;9.620;2022-12-10T08:48:32;0.70;99.90
19242;DHT22;9755;47.790;9.620;2022-12-10T08:51:01;0.70;99.90
19242;DHT22;9755;47.790;9.620;2022-12-10T08:53:28;0.70;99.90
19242;DHT22;9755;47.790;9.620;2022-12-10T08:55:55;0.70;99.90
19242;DHT22;9755;47.790;9.620;2022-12-10T08:58:22;0.70;99.90
19242;DHT22;9755;47.790;9.620;2022-12-10T09:00:52;0.70;99.90
19242;DHT22;9755;47.790;9.620;2022-12-10T09:03:19;0.70;99.90
19242;DHT22;9755;47.790;9.620;2022-12-10T09:05:46;0.80;99.90
19242;DHT22;9755;47.790;9.620;2022-12-10T09:08:15;0.80;99.90
19242;DHT22;9755;47.790;9.620;2022-12-10T09:10:42;0.90;99.90
19242;DHT22;9755;47.790;9.620;2022-12-10T09:13:10;0.90;99.90
19242;DHT22;9755;47.790;9.620;2022-12-10T09:15:37;0.80;99.90
19242;DHT22;9755;47.790;9.620;2022-12-10T09:18:04;0.80;99.90
19242;DHT22;9755;47.790;9.620;2022-12-10T09:20:31;0.80;99.90
19242;DHT22;9755;47.790;9.620;2022-12-10T09:22:58;0.80;99.90
19242;DHT22;9755;47.790;9.620;2022-12-10T09:25:26;0.90;99.90
19242;DHT22;9755;47.790;9.620;2022-12-10T09:27:55;0.90;99.90
19242;DHT22;9755;47.790;9.620;2022-12-10T09:30:22;0.90;99.90
19242;DHT22;9755;47.790;9.620;2022-12-10T09:32:49;1.00;99.90
19242;DHT22;9755;47.790;9.620;2022-12-10T09:35:16;1.00;99.90
19242;DHT22;9755;47.790;9.620;2022-12-10T09:37:43;1.00;99.90
19242;DHT22;9755;47.790;9.620;2022-12-10T09:40:15;1.00;99.90
19242;DHT22;9755;47.790;9.620;2022-12-10T09:42:48;1.00;99.90
19242;DHT22;9755;47.790;9.620;2022-12-10T09:45:21;1.00;99.90
19242;DHT22;9755;47.790;9.620;2022-12-10T09:47:56;1.00;99.90
19242;DHT22;9755;47.790;9.620;2022-12-10T09:50:30;1.00;99.90
19242;DHT22;9755;47.790;9.620;2022-12-10T09:53:00;0.90;99.90
19242;DHT22;9755;47.790;9.620;2022-12-10T09:55:33;0.90;99.90
19242;DHT22;9755;47.790;9.620;2022-12-10T09:58:04;0.90;99.90
19242;DHT22;9755;47.790;9.620;2022-12-10T10:00:35;0.80;99.90
19242;DHT22;9755;47.790;9.620;2022-12-10T10:03:03;0.80;99.90
19242;DHT22;9755;47.790;9.620;2022-12-10T10:05:35;0.80;99.90
19242;DHT22;9755;47.790;9.620;2022-12-10T10:08:04;0.70;99.90
19242;DHT22;9755;47.790;9.620;2022-12-10T10:10:34;0.70;99.90
19242;DHT22;9755;47.790;9.620;2022-12-10T10:13:12;0.70;99.90
19242;DHT22;9755;47.790;9.620;2022-12-10T10:15:44;0.60;99.90
19242;DHT22;9755;47.790;9.620;2022-12-10T10:18:17;0.60;99.90
19242;DHT22;9755;47.790;9.620;2022-12-10T10:20:45;0.60;99.90
19242;DHT22;9755;47.790;9.620;2022-12-10T10:23:14;0.60;99.90
19242;DHT22;9755;47.790;9.620;2022-12-10T10:25:45;0.60;99.90
19242;DHT22;9755;47.790;9.620;2022-12-10T10:28:18;0.60;99.90
19242;DHT22;9755;47.790;9.620;2022-12-10T10:30:45;0.60;99.90
19242;DHT22;9755;47.790;9.620;2022-12-10T10:33:14;0.70;99.90
19242;DHT22;9755;47.790;9.620;2022-12-10T10:35:44;0.70;99.90
19242;DHT22;9755;47.790;9.620;2022-12-10T10:38:16;0.70;99.90
19242;DHT22;9755;47.790;9.620;2022-12-10T10:40:46;0.60;99.90
19242;DHT22;9755;47.790;9.620;2022-12-10T10:43:20;0.60;99.90
19242;DHT22;9755;47.790;9.620;2022-12-10T10:45:49;0.50;99.90
19242;DHT22;9755;47.790;9.620;2022-12-10T10:48:20;0.60;99.90
19242;DHT22;9755;47.790;9.620;2022-12-10T10:50:49;0.60;99.90
19242;DHT22;9755;47.790;9.620;2022-12-10T10:53:40;0.60;99.90
19242;DHT22;9755;47.790;9.620;2022-12-10T10:56:10;0.60;99.90
19242;DHT22;9755;47.790;9.620;2022-12-10T10:58:55;0.60;99.90
19242;DHT22;9755;47.790;9.620;2022-12-10T11:01:25;0.60;99.90
19242;DHT22;9755;47.790;9.620;2022-12-10T11:03:55;0.60;99.90
19242;DHT22;9755;47.790;9.620;2022-12-10T11:06:23;0.70;99.90
19242;DHT22;9755;47.790;9.620;2022-12-10T11:08:53;0.70;99.90
19242;DHT22;9755;47.790;9.620;2022-12-10T11:11:25;0.70;99.90
19242;DHT22;9755;47.790;9.620;2022-12-10T11:13:53;0.70;99.90
19242;DHT22;9755;47.790;9.620;2022-12-10T11:16:39;0.70;99.90
19242;DHT22;9755;47.790;9.620;2022-12-10T11:19:18;0.70;99.90
19242;DHT22;9755;47.790;9.620;2022-12-10T11:21:46;0.70;99.90
19242;DHT22;9755;47.790;9.620;2022-12-10T11:24:18;0.70;99.90
19242;DHT22;9755;47.790;9.620;2022-12-10T11:27:03;0.60;99.90
19242;DHT22;9755;47.790;9.620;2022-12-10T11:29:48;0.60;99.90
19242;DHT22;9755;47.790;9.620;2022-12-10T11:32:35;0.60;99.90
19242;DHT22;9755;47.790;9.620;2022-12-10T11:35:12;0.50;99.90
19242;DHT22;9755;47.790;9.620;2022-12-10T11:37:46;0.60;99.90
19242;DHT22;9755;47.790;9.620;2022-12-10T11:40:37;0.60;99.90
19242;DHT22;9755;47.790;9.620;2022-12-10T11:43:21;0.60;99.90
19242;DHT22;9755;47.790;9.620;2022-12-10T11:46:07;0.60;99.90
19242;DHT22;9755;47.790;9.620;2022-12-10T11:48:55;0.60;99.90
19242;DHT22;9755;47.790;9.620;2022-12-10T11:51:32;0.60;99.90
19242;DHT22;9755;47.790;9.620;2022-12-10T11:54:10;0.70;99.90
19242;DHT22;9755;47.790;9.620;2022-12-10T11:56:44;0.70;99.90
19242;DHT22;9755;47.790;9.620;2022-12-10T11:59:19;0.70;99.90
19242;DHT22;9755;47.790;9.620;2022-12-10T12:02:12;0.80;99.90
19242;DHT22;9755;47.790;9.620;2022-12-10T12:04:54;0.70;99.90
19242;DHT22;9755;47.790;9.620;2022-12-10T12:07:38;0.70;99.90
19242;DHT22;9755;47.790;9.620;2022-12-10T12:10:32;0.50;99.90
19242;DHT22;9755;47.790;9.620;2022-12-10T12:13:05;0.50;99.90
19242;DHT22;9755;47.790;9.620;2022-12-10T12:15:39;0.50;99.90
19242;DHT22;9755;47.790;9.620;2022-12-10T12:18:17;0.50;99.90
19242;DHT22;9755;47.790;9.620;2022-12-10T12:20:48;0.50;99.90
19242;DHT22;9755;47.790;9.620;2022-12-10T12:23:21;0.50;99.90
19242;DHT22;9755;47.790;9.620;2022-12-10T12:25:52;0.40;99.90
19242;DHT22;9755;47.790;9.620;2022-12-10T12:28:24;0.30;99.90
19242;DHT22;9755;47.790;9.620;2022-12-10T12:30:58;0.30;99.90
19242;DHT22;9755;47.790;9.620;2022-12-10T12:33:31;0.20;99.90
19242;DHT22;9755;47.790;9.620;2022-12-10T12:36:03;0.20;99.90
19242;DHT22;9755;47.790;9.620;2022-12-10T12:38:39;0.30;99.90
19242;DHT22;9755;47.790;9.620;2022-12-10T12:41:15;0.20;99.90
19242;DHT22;9755;47.790;9.620;2022-12-10T12:43:47;0.20;99.90
19242;DHT22;9755;47.790;9.620;2022-12-10T12:46:23;0.30;99.90
19242;DHT22;9755;47.790;9.620;2022-12-10T12:48:58;0.30;99.90
19242;DHT22;9755;47.790;9.620;2022-12-10T12:51:33;0.20;99.90
19242;DHT22;9755;47.790;9.620;2022-12-10T12:54:01;0.10;99.90
19242;DHT22;9755;47.790;9.620;2022-12-10T12:56:48;0.10;99.90
19242;DHT22;9755;47.790;9.620;2022-12-10T12:59:32;0.10;99.90
19242;DHT22;9755;47.790;9.620;2022-12-10T13:02:08;0.10;99.90
19242;DHT22;9755;47.790;9.620;2022-12-10T13:04:41;0.10;99.90
19242;DHT22;9755;47.790;9.620;2022-12-10T13:10:18;0.20;99.90
19242;DHT22;9755;47.790;9.620;2022-12-10T13:12:50;0.20;99.90
19242;DHT22;9755;47.790;9.620;2022-12-10T13:15:19;0.20;99.90
19242;DHT22;9755;47.790;9.620;2022-12-10T13:18:06;0.20;99.90
19242;DHT22;9755;47.790;9.620;2022-12-10T13:20:48;0.10;99.90
19242;DHT22;9755;47.790;9.620;2022-12-10T13:23:33;0.10;99.90
19242;DHT22;9755;47.790;9.620;2022-12-10T13:26:01;0.10;99.90
19242;DHT22;9755;47.790;9.620;2022-12-10T13:28:47;0.10;99.90
19242;DHT22;9755;47.790;9.620;2022-12-10T13:31:35;0.10;99.90
19242;DHT22;9755;47.790;9.620;2022-12-10T13:34:21;0.10;99.90
19242;DHT22;9755;47.790;9.620;2022-12-10T13:37:18;0.20;99.90
19242;DHT22;9755;47.790;9.620;2022-12-10T13:39:48;0.10;99.90
19242;DHT22;9755;47.790;9.620;2022-12-10T13:42:28;0.20;99.90
19242;DHT22;9755;47.790;9.620;2022-12-10T13:45:34;0.10;99.90
19242;DHT22;9755;47.790;9.620;2022-12-10T13:48:29;0.20;99.90
19242;DHT22;9755;47.790;9.620;2022-12-10T13:51:26;0.20;99.90
19242;DHT22;9755;47.790;9.620;2022-12-10T13:54:05;0.20;99.90
19242;DHT22;9755;47.790;9.620;2022-12-10T13:56:40;0.20;99.90
19242;DHT22;9755;47.790;9.620;2022-12-10T13:59:19;0.10;99.90
19242;DHT22;9755;47.790;9.620;2022-12-10T14:01:56;0.10;99.90
19242;DHT22;9755;47.790;9.620;2022-12-10T14:04:39;0.10;99.90
19242;DHT22;9755;47.790;9.620;2022-12-10T14:07:14;0.10;99.90
19242;DHT22;9755;47.790;9.620;2022-12-10T14:09:48;0.10;99.90
19242;DHT22;9755;47.790;9.620;2022-12-10T14:12:18;0.10;99.90
19242;DHT22;9755;47.790;9.620;2022-12-10T14:14:52;0.10;99.90
19242;DHT22;9755;47.790;9.620;2022-12-10T14:17:28;0.00;99.90
19242;DHT22;9755;47.790;9.620;2022-12-10T14:19:57;0.10;99.90
19242;DHT22;9755;47.790;9.620;2022-12-10T14:22:30;0.00;99.90
19242;DHT22;9755;47.790;9.620;2022-12-10T14:25:02;0.00;99.90
19242;DHT22;9755;47.790;9.620;2022-12-10T14:27:32;0.00;99.90
19242;DHT22;9755;47.790;9.620;2022-12-10T14:30:03;0.00;99.90
19242;DHT22;9755;47.790;9.620;2022-12-10T14:32:33;-0.10;99.90
19242;DHT22;9755;47.790;9.620;2022-12-10T14:35:04;-0.20;99.90
19242;DHT22;9755;47.790;9.620;2022-12-10T14:37:34;-0.10;99.90
19242;DHT22;9755;47.790;9.620;2022-12-10T14:40:06;-0.10;99.90
19242;DHT22;9755;47.790;9.620;2022-12-10T14:42:34;-0.10;99.90
19242;DHT22;9755;47.790;9.620;2022-12-10T14:45:04;-0.10;99.90
19242;DHT22;9755;47.790;9.620;2022-12-10T14:47:35;-0.10;99.90
19242;DHT22;9755;47.790;9.620;2022-12-10T14:50:05;-0.10;99.90
19242;DHT22;9755;47.790;9.620;2022-12-10T14:52:41;-0.10;99.90
19242;DHT22;9755;47.790;9.620;2022-12-10T14:55:14;-0.20;99.90
19242;DHT22;9755;47.790;9.620;2022-12-10T14:57:43;-0.20;99.90
19242;DHT22;9755;47.790;9.620;2022-12-10T15:00:14;-0.20;99.90
19242;DHT22;9755;47.790;9.620;2022-12-10T15:02:43;-0.20;99.90
19242;DHT22;9755;47.790;9.620;2022-12-10T15:05:13;-0.20;99.90
19242;DHT22;9755;47.790;9.620;2022-12-10T15:07:43;-0.20;99.90
19242;DHT22;9755;47.790;9.620;2022-12-10T15:10:19;-0.20;99.90
19242;DHT22;9755;47.790;9.620;2022-12-10T15:12:49;-0.20;99.90
19242;DHT22;9755;47.790;9.620;2022-12-10T15:15:21;-0.20;99.90
19242;DHT22;9755;47.790;9.620;2022-12-10T15:17:57;-0.20;99.90
19242;DHT22;9755;47.790;9.620;2022-12-10T15:20:26;-0.30;99.90
19242;DHT22;9755;47.790;9.620;2022-12-10T15:22:54;-0.20;99.90
19242;DHT22;9755;47.790;9.620;2022-12-10T15:25:28;-0.20;99.90
19242;DHT22;9755;47.790;9.620;2022-12-10T15:27:57;-0.20;99.90
19242;DHT22;9755;47.790;9.620;2022-12-10T15:30:34;-0.20;99.90
19242;DHT22;9755;47.790;9.620;2022-12-10T15:33:04;-0.30;99.90
19242;DHT22;9755;47.790;9.620;2022-12-10T15:35:39;-0.30;99.90
19242;DHT22;9755;47.790;9.620;2022-12-10T15:38:11;-0.30;99.90
19242;DHT22;9755;47.790;9.620;2022-12-10T15:40:40;-0.30;99.90
19242;DHT22;9755;47.790;9.620;2022-12-10T15:43:13;-0.30;99.90
19242;DHT22;9755;47.790;9.620;2022-12-10T15:45:49;-0.30;99.90
19242;DHT22;9755;47.790;9.620;2022-12-10T15:48:16;-0.30;99.90
19242;DHT22;9755;47.790;9.620;2022-12-10T15:50:44;-0.40;99.90
19242;DHT22;9755;47.790;9.620;2022-12-10T15:53:14;-0.40;99.90
19242;DHT22;9755;47.790;9.620;2022-12-10T15:55:43;-0.40;99.90
19242;DHT22;9755;47.790;9.620;2022-12-10T15:58:10;-0.40;99.90
19242;DHT22;9755;47.790;9.620;2022-12-10T16:00:38;-0.40;99.90
19242;DHT22;9755;47.790;9.620;2022-12-10T16:03:11;-0.40;99.90
19242;DHT22;9755;47.790;9.620;2022-12-10T16:05:39;-0.40;99.90
19242;DHT22;9755;47.790;9.620;2022-12-10T16:08:12;-0.50;99.90
19242;DHT22;9755;47.790;9.620;2022-12-10T16:10:40;-0.40;99.90
19242;DHT22;9755;47.790;9.620;2022-12-10T16:13:12;-0.40;99.90
19242;DHT22;9755;47.790;9.620;2022-12-10T16:15:44;-0.40;99.90
19242;DHT22;9755;47.790;9.620;2022-12-10T16:18:12;-0.40;99.90
19242;DHT22;9755;47.790;9.620;2022-12-10T16:20:39;-0.30;99.90
19242;DHT22;9755;47.790;9.620;2022-12-10T16:23:07;-0.40;99.90
19242;DHT22;9755;47.790;9.620;2022-12-10T16:25:35;-0.40;99.90
19242;DHT22;9755;47.790;9.620;2022-12-10T16:28:03;-0.40;99.90